sensor_id;sensor_type;location;lat;lon;timestamp;P1;durP1;ratioP1;P2;durP2;ratioP2
10801;SDS011;5453;50.852;7.102;2024-03-22T00:02:19;14.50;;;5.38;;
10801;SDS011;5453;50.852;7.102;2024-03-22T00:04:50;14.20;;;5.50;;
10801;SDS011;5453;50.852;7.102;2024-03-22T00:07:21;15.40;;;6.30;;
10801;SDS011;5453;50.852;7.102;2024-03-22T00:09:52;15.15;;;6.13;;
10801;SDS011;5453;50.852;7.102;2024-03-22T00:12:23;16.83;;;6.28;;
10801;SDS011;5453;50.852;7.102;2024-03-22T00:14:54;14.27;;;5.75;;
10801;SDS011;5453;50.852;7.102;2024-03-22T00:17:24;14.65;;;6.43;;
10801;SDS011;5453;50.852;7.102;2024-03-22T00:19:55;17.00;;;6.20;;
10801;SDS011;5453;50.852;7.102;2024-03-22T00:22:26;19.23;;;6.50;;
10801;SDS011;5453;50.852;7.102;2024-03-22T00:24:57;13.95;;;5.78;;
10801;SDS011;5453;50.852;7.102;2024-03-22T00:27:28;15.43;;;5.82;;
10801;SDS011;5453;50.852;7.102;2024-03-22T00:29:59;20.83;;;6.55;;
10801;SDS011;5453;50.852;7.102;2024-03-22T00:32:30;16.65;;;5.97;;
10801;SDS011;5453;50.852;7.102;2024-03-22T00:35:00;14.02;;;6.07;;
10801;SDS011;5453;50.852;7.102;2024-03-22T00:37:31;21.45;;;6.45;;
10801;SDS011;5453;50.852;7.102;2024-03-22T00:40:02;15.90;;;6.18;;
10801;SDS011;5453;50.852;7.102;2024-03-22T00:42:34;20.48;;;6.65;;
10801;SDS011;5453;50.852;7.102;2024-03-22T00:45:05;16.13;;;6.38;;
10801;SDS011;5453;50.852;7.102;2024-03-22T00:47:36;16.10;;;6.22;;
10801;SDS011;5453;50.852;7.102;2024-03-22T00:50:07;17.35;;;6.25;;
10801;SDS011;5453;50.852;7.102;2024-03-22T00:52:38;18.90;;;6.60;;
10801;SDS011;5453;50.852;7.102;2024-03-22T00:55:09;16.27;;;5.63;;
10801;SDS011;5453;50.852;7.102;2024-03-22T00:57:40;14.70;;;5.97;;
10801;SDS011;5453;50.852;7.102;2024-03-22T01:00:11;15.50;;;6.25;;
10801;SDS011;5453;50.852;7.102;2024-03-22T01:02:43;16.42;;;5.78;;
10801;SDS011;5453;50.852;7.102;2024-03-22T01:05:14;14.90;;;6.05;;
10801;SDS011;5453;50.852;7.102;2024-03-22T01:07:45;16.77;;;6.80;;
10801;SDS011;5453;50.852;7.102;2024-03-22T01:10:16;15.38;;;6.53;;
10801;SDS011;5453;50.852;7.102;2024-03-22T01:12:48;17.48;;;6.55;;
10801;SDS011;5453;50.852;7.102;2024-03-22T01:15:19;20.42;;;6.15;;
10801;SDS011;5453;50.852;7.102;2024-03-22T01:17:50;17.77;;;6.43;;
10801;SDS011;5453;50.852;7.102;2024-03-22T01:20:22;17.42;;;6.32;;
10801;SDS011;5453;50.852;7.102;2024-03-22T01:22:53;19.67;;;6.47;;
10801;SDS011;5453;50.852;7.102;2024-03-22T01:25:24;18.40;;;6.15;;
10801;SDS011;5453;50.852;7.102;2024-03-22T01:27:55;16.67;;;6.13;;
10801;SDS011;5453;50.852;7.102;2024-03-22T01:30:26;17.38;;;6.25;;
10801;SDS011;5453;50.852;7.102;2024-03-22T01:32:59;15.18;;;5.60;;
10801;SDS011;5453;50.852;7.102;2024-03-22T01:35:30;16.17;;;5.97;;
10801;SDS011;5453;50.852;7.102;2024-03-22T01:38:01;17.50;;;6.50;;
10801;SDS011;5453;50.852;7.102;2024-03-22T01:40:32;14.60;;;5.07;;
10801;SDS011;5453;50.852;7.102;2024-03-22T01:43:02;16.65;;;5.25;;
10801;SDS011;5453;50.852;7.102;2024-03-22T01:45:33;18.00;;;6.35;;
10801;SDS011;5453;50.852;7.102;2024-03-22T01:48:06;12.43;;;4.75;;
10801;SDS011;5453;50.852;7.102;2024-03-22T01:50:37;12.85;;;5.55;;
10801;SDS011;5453;50.852;7.102;2024-03-22T01:53:08;15.65;;;6.07;;
10801;SDS011;5453;50.852;7.102;2024-03-22T01:55:40;16.58;;;6.18;;
10801;SDS011;5453;50.852;7.102;2024-03-22T01:58:11;18.48;;;6.35;;
10801;SDS011;5453;50.852;7.102;2024-03-22T02:00:42;15.43;;;4.75;;
10801;SDS011;5453;50.852;7.102;2024-03-22T02:03:13;18.08;;;6.03;;
10801;SDS011;5453;50.852;7.102;2024-03-22T02:05:44;15.05;;;5.30;;
10801;SDS011;5453;50.852;7.102;2024-03-22T02:08:15;15.80;;;5.90;;
10801;SDS011;5453;50.852;7.102;2024-03-22T02:10:46;10.73;;;4.65;;
10801;SDS011;5453;50.852;7.102;2024-03-22T02:13:17;13.82;;;4.50;;
10801;SDS011;5453;50.852;7.102;2024-03-22T02:15:48;14.25;;;5.25;;
10801;SDS011;5453;50.852;7.102;2024-03-22T02:18:18;15.77;;;5.68;;
10801;SDS011;5453;50.852;7.102;2024-03-22T02:20:49;15.43;;;4.65;;
10801;SDS011;5453;50.852;7.102;2024-03-22T02:23:33;12.65;;;4.65;;
10801;SDS011;5453;50.852;7.102;2024-03-22T02:26:05;15.18;;;5.20;;
10801;SDS011;5453;50.852;7.102;2024-03-22T02:28:38;12.63;;;4.95;;
10801;SDS011;5453;50.852;7.102;2024-03-22T02:31:09;13.07;;;5.25;;
10801;SDS011;5453;50.852;7.102;2024-03-22T02:33:39;14.48;;;4.95;;
10801;SDS011;5453;50.852;7.102;2024-03-22T02:36:10;12.55;;;5.03;;
10801;SDS011;5453;50.852;7.102;2024-03-22T02:38:41;12.93;;;5.15;;
10801;SDS011;5453;50.852;7.102;2024-03-22T02:41:12;14.43;;;5.13;;
10801;SDS011;5453;50.852;7.102;2024-03-22T02:43:43;11.02;;;4.68;;
10801;SDS011;5453;50.852;7.102;2024-03-22T02:46:14;13.32;;;4.60;;
10801;SDS011;5453;50.852;7.102;2024-03-22T02:48:45;13.05;;;4.88;;
10801;SDS011;5453;50.852;7.102;2024-03-22T02:51:15;14.43;;;4.68;;
10801;SDS011;5453;50.852;7.102;2024-03-22T02:53:47;10.35;;;4.50;;
10801;SDS011;5453;50.852;7.102;2024-03-22T02:56:18;14.70;;;5.10;;
10801;SDS011;5453;50.852;7.102;2024-03-22T02:58:49;14.27;;;5.05;;
10801;SDS011;5453;50.852;7.102;2024-03-22T03:01:20;12.65;;;4.28;;
10801;SDS011;5453;50.852;7.102;2024-03-22T03:03:51;15.68;;;5.13;;
10801;SDS011;5453;50.852;7.102;2024-03-22T03:06:22;16.42;;;6.05;;
10801;SDS011;5453;50.852;7.102;2024-03-22T03:08:52;11.70;;;4.75;;
10801;SDS011;5453;50.852;7.102;2024-03-22T03:11:23;12.15;;;4.95;;
10801;SDS011;5453;50.852;7.102;2024-03-22T03:13:54;13.40;;;4.80;;
10801;SDS011;5453;50.852;7.102;2024-03-22T03:16:25;11.88;;;4.55;;
10801;SDS011;5453;50.852;7.102;2024-03-22T03:18:56;9.65;;;3.97;;
10801;SDS011;5453;50.852;7.102;2024-03-22T03:21:27;11.45;;;5.20;;
10801;SDS011;5453;50.852;7.102;2024-03-22T03:23:57;10.88;;;4.68;;
10801;SDS011;5453;50.852;7.102;2024-03-22T03:26:28;13.73;;;4.82;;
10801;SDS011;5453;50.852;7.102;2024-03-22T03:28:59;12.35;;;4.47;;
10801;SDS011;5453;50.852;7.102;2024-03-22T03:31:30;12.52;;;4.97;;
10801;SDS011;5453;50.852;7.102;2024-03-22T03:34:01;16.10;;;4.80;;
10801;SDS011;5453;50.852;7.102;2024-03-22T03:36:32;13.25;;;4.60;;
10801;SDS011;5453;50.852;7.102;2024-03-22T03:39:03;14.57;;;5.13;;
10801;SDS011;5453;50.852;7.102;2024-03-22T03:41:36;13.65;;;4.47;;
10801;SDS011;5453;50.852;7.102;2024-03-22T03:44:07;16.35;;;5.10;;
10801;SDS011;5453;50.852;7.102;2024-03-22T03:46:38;12.88;;;4.40;;
10801;SDS011;5453;50.852;7.102;2024-03-22T03:49:09;11.50;;;4.10;;
10801;SDS011;5453;50.852;7.102;2024-03-22T03:51:40;12.40;;;5.05;;
10801;SDS011;5453;50.852;7.102;2024-03-22T03:54:11;12.73;;;4.28;;
10801;SDS011;5453;50.852;7.102;2024-03-22T03:56:42;12.80;;;4.53;;
10801;SDS011;5453;50.852;7.102;2024-03-22T03:59:13;12.55;;;4.90;;
10801;SDS011;5453;50.852;7.102;2024-03-22T04:01:43;13.15;;;4.85;;
10801;SDS011;5453;50.852;7.102;2024-03-22T04:04:14;15.60;;;4.63;;
10801;SDS011;5453;50.852;7.102;2024-03-22T04:06:45;13.98;;;5.07;;
10801;SDS011;5453;50.852;7.102;2024-03-22T04:09:16;12.18;;;4.28;;
10801;SDS011;5453;50.852;7.102;2024-03-22T04:11:47;14.50;;;4.57;;
10801;SDS011;5453;50.852;7.102;2024-03-22T04:14:18;12.13;;;5.07;;
10801;SDS011;5453;50.852;7.102;2024-03-22T04:16:48;12.82;;;5.10;;
10801;SDS011;5453;50.852;7.102;2024-03-22T04:19:19;13.38;;;4.45;;
10801;SDS011;5453;50.852;7.102;2024-03-22T04:21:51;13.60;;;4.53;;
10801;SDS011;5453;50.852;7.102;2024-03-22T04:24:22;11.32;;;4.30;;
10801;SDS011;5453;50.852;7.102;2024-03-22T04:26:53;14.02;;;5.15;;
10801;SDS011;5453;50.852;7.102;2024-03-22T04:29:23;11.90;;;4.90;;
10801;SDS011;5453;50.852;7.102;2024-03-22T04:31:54;12.57;;;4.70;;
10801;SDS011;5453;50.852;7.102;2024-03-22T04:34:25;17.02;;;5.30;;
10801;SDS011;5453;50.852;7.102;2024-03-22T04:36:56;10.93;;;4.45;;
10801;SDS011;5453;50.852;7.102;2024-03-22T04:39:27;12.90;;;5.13;;
10801;SDS011;5453;50.852;7.102;2024-03-22T04:41:58;11.02;;;5.18;;
10801;SDS011;5453;50.852;7.102;2024-03-22T04:44:29;12.50;;;5.13;;
10801;SDS011;5453;50.852;7.102;2024-03-22T04:47:00;11.48;;;5.30;;
10801;SDS011;5453;50.852;7.102;2024-03-22T04:49:31;10.65;;;4.45;;
10801;SDS011;5453;50.852;7.102;2024-03-22T04:52:01;12.70;;;4.72;;
10801;SDS011;5453;50.852;7.102;2024-03-22T04:54:32;14.52;;;5.22;;
10801;SDS011;5453;50.852;7.102;2024-03-22T04:57:03;10.57;;;4.40;;
10801;SDS011;5453;50.852;7.102;2024-03-22T04:59:34;12.35;;;4.82;;
10801;SDS011;5453;50.852;7.102;2024-03-22T05:02:05;12.27;;;5.20;;
10801;SDS011;5453;50.852;7.102;2024-03-22T05:04:36;13.75;;;5.10;;
10801;SDS011;5453;50.852;7.102;2024-03-22T05:07:07;13.95;;;4.20;;
10801;SDS011;5453;50.852;7.102;2024-03-22T05:09:38;12.27;;;4.35;;
10801;SDS011;5453;50.852;7.102;2024-03-22T05:12:09;12.15;;;4.78;;
10801;SDS011;5453;50.852;7.102;2024-03-22T05:14:40;13.27;;;5.75;;
10801;SDS011;5453;50.852;7.102;2024-03-22T05:17:10;13.05;;;5.32;;
10801;SDS011;5453;50.852;7.102;2024-03-22T05:19:41;12.25;;;4.13;;
10801;SDS011;5453;50.852;7.102;2024-03-22T05:22:12;13.30;;;6.05;;
10801;SDS011;5453;50.852;7.102;2024-03-22T05:24:43;12.70;;;4.88;;
10801;SDS011;5453;50.852;7.102;2024-03-22T05:27:14;20.00;;;8.15;;
10801;SDS011;5453;50.852;7.102;2024-03-22T05:29:45;18.63;;;7.63;;
10801;SDS011;5453;50.852;7.102;2024-03-22T05:32:16;17.38;;;5.68;;
10801;SDS011;5453;50.852;7.102;2024-03-22T05:34:46;12.18;;;4.60;;
10801;SDS011;5453;50.852;7.102;2024-03-22T05:37:17;12.68;;;4.68;;
10801;SDS011;5453;50.852;7.102;2024-03-22T05:39:48;12.45;;;4.80;;
10801;SDS011;5453;50.852;7.102;2024-03-22T05:42:19;10.90;;;5.30;;
10801;SDS011;5453;50.852;7.102;2024-03-22T05:44:50;13.98;;;5.18;;
10801;SDS011;5453;50.852;7.102;2024-03-22T05:47:22;9.77;;;4.50;;
10801;SDS011;5453;50.852;7.102;2024-03-22T05:49:53;12.00;;;4.70;;
10801;SDS011;5453;50.852;7.102;2024-03-22T05:52:24;11.57;;;4.97;;
10801;SDS011;5453;50.852;7.102;2024-03-22T05:54:55;15.80;;;4.45;;
10801;SDS011;5453;50.852;7.102;2024-03-22T05:57:25;11.68;;;4.65;;
10801;SDS011;5453;50.852;7.102;2024-03-22T05:59:56;11.55;;;4.40;;
10801;SDS011;5453;50.852;7.102;2024-03-22T06:02:27;11.50;;;4.28;;
10801;SDS011;5453;50.852;7.102;2024-03-22T06:04:58;9.63;;;5.10;;
10801;SDS011;5453;50.852;7.102;2024-03-22T06:07:29;9.90;;;3.67;;
10801;SDS011;5453;50.852;7.102;2024-03-22T06:10:05;11.50;;;4.13;;
10801;SDS011;5453;50.852;7.102;2024-03-22T06:12:38;11.88;;;4.38;;
10801;SDS011;5453;50.852;7.102;2024-03-22T06:15:09;10.40;;;4.47;;
10801;SDS011;5453;50.852;7.102;2024-03-22T06:17:40;12.27;;;5.35;;
10801;SDS011;5453;50.852;7.102;2024-03-22T06:20:12;10.18;;;4.20;;
10801;SDS011;5453;50.852;7.102;2024-03-22T06:22:43;10.70;;;4.25;;
10801;SDS011;5453;50.852;7.102;2024-03-22T06:25:14;9.55;;;4.10;;
10801;SDS011;5453;50.852;7.102;2024-03-22T06:27:45;12.50;;;5.13;;
10801;SDS011;5453;50.852;7.102;2024-03-22T06:30:16;11.27;;;5.68;;
10801;SDS011;5453;50.852;7.102;2024-03-22T06:32:47;9.40;;;4.28;;
10801;SDS011;5453;50.852;7.102;2024-03-22T06:35:18;9.98;;;4.45;;
10801;SDS011;5453;50.852;7.102;2024-03-22T06:37:49;11.85;;;4.07;;
10801;SDS011;5453;50.852;7.102;2024-03-22T06:40:19;11.57;;;3.72;;
10801;SDS011;5453;50.852;7.102;2024-03-22T06:42:50;9.10;;;3.47;;
10801;SDS011;5453;50.852;7.102;2024-03-22T06:45:21;9.32;;;3.47;;
10801;SDS011;5453;50.852;7.102;2024-03-22T06:47:52;11.20;;;3.95;;
10801;SDS011;5453;50.852;7.102;2024-03-22T06:50:23;12.02;;;4.03;;
10801;SDS011;5453;50.852;7.102;2024-03-22T06:52:56;8.30;;;3.00;;
10801;SDS011;5453;50.852;7.102;2024-03-22T06:55:27;9.60;;;3.47;;
10801;SDS011;5453;50.852;7.102;2024-03-22T06:57:58;8.68;;;3.65;;
10801;SDS011;5453;50.852;7.102;2024-03-22T07:00:29;9.60;;;3.58;;
10801;SDS011;5453;50.852;7.102;2024-03-22T07:03:01;10.13;;;3.25;;
10801;SDS011;5453;50.852;7.102;2024-03-22T07:05:33;8.02;;;3.78;;
10801;SDS011;5453;50.852;7.102;2024-03-22T07:08:04;7.47;;;4.00;;
10801;SDS011;5453;50.852;7.102;2024-03-22T07:10:38;11.70;;;4.80;;
10801;SDS011;5453;50.852;7.102;2024-03-22T07:13:09;12.45;;;4.35;;
10801;SDS011;5453;50.852;7.102;2024-03-22T07:15:40;9.40;;;4.28;;
10801;SDS011;5453;50.852;7.102;2024-03-22T07:18:11;7.32;;;3.50;;
10801;SDS011;5453;50.852;7.102;2024-03-22T07:20:42;12.00;;;3.85;;
10801;SDS011;5453;50.852;7.102;2024-03-22T07:23:13;7.93;;;2.97;;
10801;SDS011;5453;50.852;7.102;2024-03-22T07:25:44;10.82;;;3.85;;
10801;SDS011;5453;50.852;7.102;2024-03-22T07:28:18;8.27;;;3.80;;
10801;SDS011;5453;50.852;7.102;2024-03-22T07:30:49;7.72;;;3.50;;
10801;SDS011;5453;50.852;7.102;2024-03-22T07:33:20;7.82;;;3.47;;
10801;SDS011;5453;50.852;7.102;2024-03-22T07:35:51;10.07;;;3.35;;
10801;SDS011;5453;50.852;7.102;2024-03-22T07:38:24;8.57;;;3.55;;
10801;SDS011;5453;50.852;7.102;2024-03-22T07:40:55;6.93;;;3.10;;
10801;SDS011;5453;50.852;7.102;2024-03-22T07:43:26;7.22;;;3.08;;
10801;SDS011;5453;50.852;7.102;2024-03-22T07:45:57;7.05;;;2.75;;
10801;SDS011;5453;50.852;7.102;2024-03-22T07:48:28;8.15;;;3.03;;
10801;SDS011;5453;50.852;7.102;2024-03-22T07:50:59;5.75;;;3.00;;
10801;SDS011;5453;50.852;7.102;2024-03-22T07:53:31;7.05;;;2.97;;
10801;SDS011;5453;50.852;7.102;2024-03-22T07:56:02;7.63;;;2.55;;
10801;SDS011;5453;50.852;7.102;2024-03-22T07:58:33;8.63;;;2.92;;
10801;SDS011;5453;50.852;7.102;2024-03-22T08:01:04;9.18;;;2.95;;
10801;SDS011;5453;50.852;7.102;2024-03-22T08:03:35;6.70;;;2.63;;
10801;SDS011;5453;50.852;7.102;2024-03-22T08:06:05;9.88;;;3.40;;
10801;SDS011;5453;50.852;7.102;2024-03-22T08:08:36;7.85;;;3.13;;
10801;SDS011;5453;50.852;7.102;2024-03-22T08:11:07;10.13;;;3.05;;
10801;SDS011;5453;50.852;7.102;2024-03-22T08:13:39;7.25;;;3.13;;
10801;SDS011;5453;50.852;7.102;2024-03-22T08:16:10;8.20;;;3.17;;
10801;SDS011;5453;50.852;7.102;2024-03-22T08:18:41;6.10;;;2.67;;
10801;SDS011;5453;50.852;7.102;2024-03-22T08:21:11;6.97;;;2.95;;
10801;SDS011;5453;50.852;7.102;2024-03-22T08:23:42;7.10;;;2.97;;
10801;SDS011;5453;50.852;7.102;2024-03-22T08:26:13;6.20;;;2.83;;
10801;SDS011;5453;50.852;7.102;2024-03-22T08:28:45;5.85;;;2.88;;
10801;SDS011;5453;50.852;7.102;2024-03-22T08:31:17;6.65;;;2.90;;
10801;SDS011;5453;50.852;7.102;2024-03-22T08:33:48;7.50;;;2.97;;
10801;SDS011;5453;50.852;7.102;2024-03-22T08:36:19;5.97;;;2.85;;
10801;SDS011;5453;50.852;7.102;2024-03-22T08:38:50;6.57;;;3.10;;
10801;SDS011;5453;50.852;7.102;2024-03-22T08:41:21;8.88;;;3.45;;
10801;SDS011;5453;50.852;7.102;2024-03-22T08:43:52;8.23;;;3.03;;
10801;SDS011;5453;50.852;7.102;2024-03-22T08:46:22;6.53;;;3.08;;
10801;SDS011;5453;50.852;7.102;2024-03-22T08:48:56;7.75;;;3.42;;
10801;SDS011;5453;50.852;7.102;2024-03-22T08:51:27;9.73;;;3.25;;
10801;SDS011;5453;50.852;7.102;2024-03-22T08:53:58;6.90;;;3.40;;
10801;SDS011;5453;50.852;7.102;2024-03-22T08:56:29;5.72;;;2.70;;
10801;SDS011;5453;50.852;7.102;2024-03-22T08:59:00;8.68;;;4.07;;
10801;SDS011;5453;50.852;7.102;2024-03-22T09:01:31;8.82;;;3.63;;
10801;SDS011;5453;50.852;7.102;2024-03-22T09:04:03;8.82;;;3.75;;
10801;SDS011;5453;50.852;7.102;2024-03-22T09:06:34;8.90;;;3.17;;
10801;SDS011;5453;50.852;7.102;2024-03-22T09:09:05;9.85;;;4.05;;
10801;SDS011;5453;50.852;7.102;2024-03-22T09:11:36;6.95;;;4.18;;
10801;SDS011;5453;50.852;7.102;2024-03-22T09:14:07;9.13;;;3.67;;
10801;SDS011;5453;50.852;7.102;2024-03-22T09:16:38;9.60;;;4.30;;
10801;SDS011;5453;50.852;7.102;2024-03-22T09:19:09;10.18;;;4.03;;
10801;SDS011;5453;50.852;7.102;2024-03-22T09:21:41;11.88;;;4.40;;
10801;SDS011;5453;50.852;7.102;2024-03-22T09:24:13;8.90;;;3.90;;
10801;SDS011;5453;50.852;7.102;2024-03-22T09:26:43;8.38;;;3.80;;
10801;SDS011;5453;50.852;7.102;2024-03-22T09:29:14;8.85;;;4.05;;
10801;SDS011;5453;50.852;7.102;2024-03-22T09:31:45;10.23;;;4.40;;
10801;SDS011;5453;50.852;7.102;2024-03-22T09:34:16;12.13;;;4.18;;
10801;SDS011;5453;50.852;7.102;2024-03-22T09:36:47;9.18;;;4.13;;
10801;SDS011;5453;50.852;7.102;2024-03-22T09:39:18;7.47;;;3.55;;
10801;SDS011;5453;50.852;7.102;2024-03-22T09:41:50;8.20;;;3.65;;
10801;SDS011;5453;50.852;7.102;2024-03-22T09:44:21;8.32;;;3.97;;
10801;SDS011;5453;50.852;7.102;2024-03-22T09:46:54;9.95;;;4.05;;
10801;SDS011;5453;50.852;7.102;2024-03-22T09:49:27;9.88;;;4.00;;
10801;SDS011;5453;50.852;7.102;2024-03-22T09:51:57;11.30;;;3.85;;
10801;SDS011;5453;50.852;7.102;2024-03-22T09:54:29;8.02;;;3.78;;
10801;SDS011;5453;50.852;7.102;2024-03-22T09:57:00;8.75;;;3.70;;
10801;SDS011;5453;50.852;7.102;2024-03-22T09:59:31;8.60;;;3.63;;
10801;SDS011;5453;50.852;7.102;2024-03-22T10:02:03;9.25;;;3.75;;
10801;SDS011;5453;50.852;7.102;2024-03-22T10:04:34;10.55;;;3.90;;
10801;SDS011;5453;50.852;7.102;2024-03-22T10:07:06;9.77;;;4.00;;
10801;SDS011;5453;50.852;7.102;2024-03-22T10:09:38;10.00;;;3.90;;
10801;SDS011;5453;50.852;7.102;2024-03-22T10:12:09;11.73;;;3.45;;
10801;SDS011;5453;50.852;7.102;2024-03-22T10:14:42;7.47;;;3.30;;
10801;SDS011;5453;50.852;7.102;2024-03-22T10:17:14;7.15;;;3.20;;
10801;SDS011;5453;50.852;7.102;2024-03-22T10:19:45;8.30;;;3.20;;
10801;SDS011;5453;50.852;7.102;2024-03-22T10:22:18;7.28;;;2.60;;
10801;SDS011;5453;50.852;7.102;2024-03-22T10:24:49;8.18;;;2.95;;
10801;SDS011;5453;50.852;7.102;2024-03-22T10:27:21;6.43;;;3.10;;
10801;SDS011;5453;50.852;7.102;2024-03-22T10:29:51;6.85;;;3.05;;
10801;SDS011;5453;50.852;7.102;2024-03-22T10:32:23;7.07;;;2.85;;
10801;SDS011;5453;50.852;7.102;2024-03-22T10:34:54;9.82;;;3.60;;
10801;SDS011;5453;50.852;7.102;2024-03-22T10:37:25;7.35;;;3.17;;
10801;SDS011;5453;50.852;7.102;2024-03-22T10:39:56;9.75;;;3.50;;
10801;SDS011;5453;50.852;7.102;2024-03-22T10:42:34;8.95;;;3.38;;
10801;SDS011;5453;50.852;7.102;2024-03-22T10:45:07;7.85;;;3.45;;
10801;SDS011;5453;50.852;7.102;2024-03-22T10:47:39;6.78;;;2.92;;
10801;SDS011;5453;50.852;7.102;2024-03-22T10:50:11;6.28;;;2.60;;
10801;SDS011;5453;50.852;7.102;2024-03-22T10:52:45;7.40;;;3.00;;
10801;SDS011;5453;50.852;7.102;2024-03-22T10:58:01;9.38;;;2.33;;
10801;SDS011;5453;50.852;7.102;2024-03-22T11:00:33;7.25;;;2.85;;
10801;SDS011;5453;50.852;7.102;2024-03-22T11:03:05;5.88;;;2.22;;
10801;SDS011;5453;50.852;7.102;2024-03-22T11:05:48;5.53;;;2.03;;
10801;SDS011;5453;50.852;7.102;2024-03-22T11:08:28;4.13;;;1.95;;
10801;SDS011;5453;50.852;7.102;2024-03-22T11:11:09;6.88;;;1.88;;
10801;SDS011;5453;50.852;7.102;2024-03-22T11:13:41;4.00;;;1.98;;
10801;SDS011;5453;50.852;7.102;2024-03-22T11:16:12;3.63;;;1.80;;
10801;SDS011;5453;50.852;7.102;2024-03-22T11:18:44;3.58;;;1.63;;
10801;SDS011;5453;50.852;7.102;2024-03-22T11:21:15;3.92;;;1.83;;
10801;SDS011;5453;50.852;7.102;2024-03-22T11:23:46;4.43;;;1.80;;
10801;SDS011;5453;50.852;7.102;2024-03-22T11:26:17;3.42;;;2.13;;
10801;SDS011;5453;50.852;7.102;2024-03-22T11:28:48;2.92;;;1.67;;
10801;SDS011;5453;50.852;7.102;2024-03-22T11:31:20;2.70;;;1.92;;
10801;SDS011;5453;50.852;7.102;2024-03-22T11:33:57;4.75;;;2.00;;
10801;SDS011;5453;50.852;7.102;2024-03-22T11:36:28;4.30;;;1.65;;
10801;SDS011;5453;50.852;7.102;2024-03-22T11:38:59;5.40;;;1.60;;
10801;SDS011;5453;50.852;7.102;2024-03-22T11:41:30;4.78;;;1.88;;
10801;SDS011;5453;50.852;7.102;2024-03-22T11:44:02;6.13;;;1.55;;
10801;SDS011;5453;50.852;7.102;2024-03-22T11:46:33;5.03;;;2.00;;
10801;SDS011;5453;50.852;7.102;2024-03-22T11:49:07;7.05;;;2.13;;
10801;SDS011;5453;50.852;7.102;2024-03-22T11:51:38;4.63;;;1.80;;
10801;SDS011;5453;50.852;7.102;2024-03-22T11:54:09;3.70;;;2.00;;
10801;SDS011;5453;50.852;7.102;2024-03-22T11:56:40;4.32;;;1.88;;
10801;SDS011;5453;50.852;7.102;2024-03-22T11:59:11;4.07;;;2.00;;
10801;SDS011;5453;50.852;7.102;2024-03-22T12:01:42;6.63;;;2.15;;
10801;SDS011;5453;50.852;7.102;2024-03-22T12:04:13;5.78;;;1.52;;
10801;SDS011;5453;50.852;7.102;2024-03-22T12:06:45;3.95;;;1.83;;
10801;SDS011;5453;50.852;7.102;2024-03-22T12:09:16;2.20;;;1.30;;
10801;SDS011;5453;50.852;7.102;2024-03-22T12:11:47;5.60;;;1.75;;
10801;SDS011;5453;50.852;7.102;2024-03-22T12:14:18;3.15;;;1.90;;
10801;SDS011;5453;50.852;7.102;2024-03-22T12:16:49;3.47;;;1.42;;
10801;SDS011;5453;50.852;7.102;2024-03-22T12:19:21;4.78;;;1.75;;
10801;SDS011;5453;50.852;7.102;2024-03-22T12:21:52;3.25;;;1.60;;
10801;SDS011;5453;50.852;7.102;2024-03-22T12:24:23;3.20;;;1.67;;
10801;SDS011;5453;50.852;7.102;2024-03-22T12:26:54;5.20;;;2.60;;
10801;SDS011;5453;50.852;7.102;2024-03-22T12:29:25;4.22;;;2.03;;
10801;SDS011;5453;50.852;7.102;2024-03-22T12:31:56;4.40;;;2.15;;
10801;SDS011;5453;50.852;7.102;2024-03-22T12:34:27;2.90;;;1.50;;
10801;SDS011;5453;50.852;7.102;2024-03-22T12:36:59;4.38;;;1.88;;
10801;SDS011;5453;50.852;7.102;2024-03-22T12:39:30;8.75;;;2.10;;
10801;SDS011;5453;50.852;7.102;2024-03-22T12:42:02;3.72;;;1.73;;
10801;SDS011;5453;50.852;7.102;2024-03-22T12:44:33;4.70;;;2.13;;
10801;SDS011;5453;50.852;7.102;2024-03-22T12:47:04;4.65;;;1.38;;
10801;SDS011;5453;50.852;7.102;2024-03-22T12:49:35;2.67;;;1.30;;
10801;SDS011;5453;50.852;7.102;2024-03-22T12:52:06;4.07;;;1.48;;
10801;SDS011;5453;50.852;7.102;2024-03-22T12:54:37;3.65;;;2.00;;
10801;SDS011;5453;50.852;7.102;2024-03-22T12:57:08;5.20;;;2.00;;
10801;SDS011;5453;50.852;7.102;2024-03-22T12:59:40;3.58;;;1.75;;
10801;SDS011;5453;50.852;7.102;2024-03-22T13:02:10;2.50;;;1.40;;
10801;SDS011;5453;50.852;7.102;2024-03-22T13:04:41;6.95;;;2.50;;
10801;SDS011;5453;50.852;7.102;2024-03-22T13:07:13;5.38;;;2.38;;
10801;SDS011;5453;50.852;7.102;2024-03-22T13:09:45;9.18;;;2.15;;
10801;SDS011;5453;50.852;7.102;2024-03-22T13:12:16;4.68;;;2.30;;
10801;SDS011;5453;50.852;7.102;2024-03-22T13:14:48;7.15;;;2.15;;
10801;SDS011;5453;50.852;7.102;2024-03-22T13:17:18;4.95;;;2.30;;
10801;SDS011;5453;50.852;7.102;2024-03-22T13:19:50;5.93;;;2.33;;
10801;SDS011;5453;50.852;7.102;2024-03-22T13:22:21;2.65;;;1.60;;
10801;SDS011;5453;50.852;7.102;2024-03-22T13:24:52;3.85;;;1.60;;
10801;SDS011;5453;50.852;7.102;2024-03-22T13:27:23;3.60;;;1.58;;
10801;SDS011;5453;50.852;7.102;2024-03-22T13:29:56;5.05;;;1.95;;
10801;SDS011;5453;50.852;7.102;2024-03-22T13:32:27;4.78;;;1.63;;
10801;SDS011;5453;50.852;7.102;2024-03-22T13:34:58;3.42;;;1.73;;
10801;SDS011;5453;50.852;7.102;2024-03-22T13:37:29;3.70;;;1.60;;
10801;SDS011;5453;50.852;7.102;2024-03-22T13:40:00;5.15;;;1.67;;
10801;SDS011;5453;50.852;7.102;2024-03-22T13:42:30;5.57;;;1.95;;
10801;SDS011;5453;50.852;7.102;2024-03-22T13:45:01;4.40;;;1.45;;
10801;SDS011;5453;50.852;7.102;2024-03-22T13:47:33;4.22;;;2.08;;
10801;SDS011;5453;50.852;7.102;2024-03-22T13:50:06;3.45;;;1.63;;
10801;SDS011;5453;50.852;7.102;2024-03-22T13:52:40;4.18;;;1.70;;
10801;SDS011;5453;50.852;7.102;2024-03-22T13:55:11;3.28;;;1.60;;
10801;SDS011;5453;50.852;7.102;2024-03-22T13:57:42;4.72;;;2.08;;
10801;SDS011;5453;50.852;7.102;2024-03-22T14:00:13;5.10;;;1.75;;
10801;SDS011;5453;50.852;7.102;2024-03-22T14:02:44;4.47;;;1.63;;
10801;SDS011;5453;50.852;7.102;2024-03-22T14:05:15;4.97;;;2.10;;
10801;SDS011;5453;50.852;7.102;2024-03-22T14:07:46;4.60;;;1.88;;
10801;SDS011;5453;50.852;7.102;2024-03-22T14:10:17;4.38;;;1.80;;
10801;SDS011;5453;50.852;7.102;2024-03-22T14:12:48;5.60;;;2.70;;
10801;SDS011;5453;50.852;7.102;2024-03-22T14:15:19;6.38;;;2.00;;
10801;SDS011;5453;50.852;7.102;2024-03-22T14:17:50;5.10;;;1.90;;
10801;SDS011;5453;50.852;7.102;2024-03-22T14:20:21;4.80;;;2.13;;
10801;SDS011;5453;50.852;7.102;2024-03-22T14:22:52;8.70;;;2.78;;
10801;SDS011;5453;50.852;7.102;2024-03-22T14:25:23;8.05;;;2.35;;
10801;SDS011;5453;50.852;7.102;2024-03-22T14:27:55;7.18;;;2.42;;
10801;SDS011;5453;50.852;7.102;2024-03-22T14:30:25;6.75;;;2.50;;
10801;SDS011;5453;50.852;7.102;2024-03-22T14:32:57;6.03;;;2.33;;
10801;SDS011;5453;50.852;7.102;2024-03-22T14:35:28;4.90;;;2.17;;
10801;SDS011;5453;50.852;7.102;2024-03-22T14:37:58;8.70;;;3.00;;
10801;SDS011;5453;50.852;7.102;2024-03-22T14:40:29;5.63;;;2.05;;
10801;SDS011;5453;50.852;7.102;2024-03-22T14:43:06;4.78;;;2.28;;
10801;SDS011;5453;50.852;7.102;2024-03-22T14:45:37;5.30;;;2.00;;
10801;SDS011;5453;50.852;7.102;2024-03-22T14:48:09;6.88;;;3.08;;
10801;SDS011;5453;50.852;7.102;2024-03-22T14:50:39;10.43;;;2.80;;
10801;SDS011;5453;50.852;7.102;2024-03-22T14:53:10;6.88;;;2.33;;
10801;SDS011;5453;50.852;7.102;2024-03-22T14:55:51;6.53;;;2.80;;
10801;SDS011;5453;50.852;7.102;2024-03-22T14:58:36;8.00;;;2.50;;
10801;SDS011;5453;50.852;7.102;2024-03-22T15:01:07;4.30;;;1.98;;
10801;SDS011;5453;50.852;7.102;2024-03-22T15:03:39;5.53;;;1.85;;
10801;SDS011;5453;50.852;7.102;2024-03-22T15:06:10;7.05;;;2.83;;
10801;SDS011;5453;50.852;7.102;2024-03-22T15:08:41;5.47;;;2.15;;
10801;SDS011;5453;50.852;7.102;2024-03-22T15:11:11;6.43;;;2.40;;
10801;SDS011;5453;50.852;7.102;2024-03-22T15:13:42;7.68;;;2.75;;
10801;SDS011;5453;50.852;7.102;2024-03-22T15:16:14;8.18;;;2.80;;
10801;SDS011;5453;50.852;7.102;2024-03-22T15:18:45;7.35;;;2.60;;
10801;SDS011;5453;50.852;7.102;2024-03-22T15:21:15;8.05;;;2.70;;
10801;SDS011;5453;50.852;7.102;2024-03-22T15:23:46;5.35;;;2.50;;